Time;durP1;ratioP1;P1;durP2;ratioP2;P2;SDS_P1;SDS_P2;PMS_P1;PMS_P2;Temp;Humidity;BMP_temperature;BMP_pressure;BME280_temperature;BME280_humidity;BME280_pressure;Samples;Min_cycle;Max_cycle;Signal;HPM_P1;HPM_P2
2023/03/05 00:02:08;;;;;;;29.10;16.00;;;5.70;99.90;;;;;;5089301;28;20320;-84
2023/03/05 00:04:34;;;;;;;28.27;15.93;;;5.70;99.90;;;;;;5073628;28;20406;-84
2023/03/05 00:07:00;;;;;;;24.50;15.70;;;5.60;99.90;;;;;;5073786;28;20193;-84
2023/03/05 00:09:26;;;;;;;28.37;14.57;;;5.60;99.90;;;;;;5089180;28;20426;-83
2023/03/05 00:11:51;;;;;;;20.43;13.93;;;5.60;99.90;;;;;;5089130;28;20177;-84
2023/03/05 00:14:17;;;;;;;24.37;15.13;;;5.50;99.90;;;;;;5073564;28;20232;-84
2023/03/05 00:16:42;;;;;;;24.63;14.50;;;5.50;99.90;;;;;;5073663;28;20197;-84
2023/03/05 00:19:09;;;;;;;24.93;14.97;;;5.50;99.90;;;;;;5089071;28;20223;-84
2023/03/05 00:21:37;;;;;;;20.63;14.15;;;5.40;99.90;;;;;;5073496;28;20299;-84
2023/03/05 00:24:06;;;;;;;20.13;13.88;;;5.40;99.90;;;;;;5073500;28;20222;-84
2023/03/05 00:26:35;;;;;;;22.33;14.00;;;5.30;99.90;;;;;;5073549;28;20180;-84
2023/03/05 00:29:01;;;;;;;20.95;13.63;;;5.20;99.90;;;;;;5088963;28;20173;-84
2023/03/05 00:31:29;;;;;;;24.38;14.15;;;5.20;99.90;;;;;;5088963;28;20544;-84
2023/03/05 00:34:00;;;;;;;23.38;13.65;;;5.20;99.90;;;;;;5073343;28;20204;-84
2023/03/05 00:36:26;;;;;;;20.75;14.25;;;5.10;99.90;;;;;;5088844;28;20190;-84
2023/03/05 00:38:52;;;;;;;22.57;12.67;;;5.10;99.90;;;;;;5073287;28;20591;-84
2023/03/05 00:41:18;;;;;;;19.90;12.48;;;5.10;99.90;;;;;;5088853;28;20496;-84
2023/03/05 00:43:44;;;;;;;25.03;14.77;;;5.10;99.90;;;;;;5073231;28;20225;-84
2023/03/05 00:46:09;;;;;;;21.63;12.63;;;5.10;99.90;;;;;;5088820;28;20264;-84
2023/03/05 00:48:35;;;;;;;22.20;13.50;;;5.10;99.90;;;;;;5088793;28;20216;-84
2023/03/05 00:51:01;;;;;;;20.13;12.17;;;5.00;99.90;;;;;;5088911;28;20268;-83
2023/03/05 00:53:27;;;;;;;20.45;12.35;;;5.00;99.90;;;;;;5088771;28;20194;-84
2023/03/05 00:55:53;;;;;;;18.30;13.17;;;4.90;99.90;;;;;;5073823;28;20176;-85
2023/03/05 00:58:19;;;;;;;21.53;13.50;;;4.90;99.90;;;;;;5088697;28;20666;-83
2023/03/05 01:00:45;;;;;;;18.90;12.60;;;4.90;99.90;;;;;;5088886;28;20216;-84
2023/03/05 01:03:10;;;;;;;20.53;12.90;;;4.80;99.90;;;;;;5072992;28;20830;-84
2023/03/05 01:05:36;;;;;;;26.30;12.90;;;4.80;99.90;;;;;;5074538;28;20260;-84
2023/03/05 01:08:02;;;;;;;20.20;12.70;;;4.80;99.90;;;;;;5076544;28;20189;-84
2023/03/05 01:10:29;;;;;;;21.30;12.67;;;4.70;99.90;;;;;;5092401;28;20914;-84
2023/03/05 01:12:55;;;;;;;21.73;11.98;;;4.70;99.90;;;;;;5091975;28;20468;-83
2023/03/05 01:15:21;;;;;;;19.95;12.23;;;4.70;99.90;;;;;;5076580;28;20578;-83
2023/03/05 01:17:47;;;;;;;20.40;12.65;;;4.70;99.90;;;;;;5076943;28;20661;-84
2023/03/05 01:20:16;;;;;;;18.57;12.43;;;4.70;99.90;;;;;;5092180;28;20180;-83
2023/03/05 01:22:42;;;;;;;19.95;12.45;;;4.70;99.90;;;;;;5092036;28;20221;-84
2023/03/05 01:25:08;;;;;;;17.80;11.30;;;4.60;99.90;;;;;;5076468;28;20179;-83
2023/03/05 01:27:34;;;;;;;18.75;12.30;;;4.60;99.90;;;;;;5091706;28;20217;-84
2023/03/05 01:30:00;;;;;;;20.53;13.20;;;4.50;99.90;;;;;;5092066;28;20189;-84
2023/03/05 01:32:26;;;;;;;18.33;11.70;;;4.50;99.90;;;;;;5092723;28;20556;-85
2023/03/05 01:34:51;;;;;;;20.60;11.70;;;4.50;99.90;;;;;;5076615;28;20179;-83
2023/03/05 01:37:17;;;;;;;19.47;12.10;;;4.40;99.90;;;;;;5076381;28;20580;-84
2023/03/05 01:39:43;;;;;;;16.97;10.93;;;4.50;99.90;;;;;;5091716;28;20173;-82
2023/03/05 01:42:08;;;;;;;21.53;13.13;;;4.50;99.90;;;;;;5075832;28;20547;-84
2023/03/05 01:44:34;;;;;;;18.00;11.73;;;4.50;99.90;;;;;;5091662;28;20203;-83
2023/03/05 01:47:00;;;;;;;19.77;12.33;;;4.40;99.90;;;;;;5091755;28;20247;-83
2023/03/05 01:49:34;;;;;;;17.60;11.90;;;4.40;99.90;;;;;;5075991;28;20505;-84
2023/03/05 01:52:16;;;;;;;20.05;12.00;;;4.40;99.90;;;;;;5076190;28;20192;-85
2023/03/05 01:55:07;;;;;;;24.25;12.60;;;4.40;99.90;;;;;;5091527;28;20181;-83
2023/03/05 01:57:39;;;;;;;18.70;12.40;;;4.40;99.90;;;;;;5091597;28;20254;-84
2023/03/05 02:00:12;;;;;;;22.55;13.70;;;4.30;99.90;;;;;;5075685;28;20173;-84
2023/03/05 02:02:38;;;;;;;19.83;12.10;;;4.30;99.90;;;;;;5091409;28;20271;-84
2023/03/05 02:05:08;;;;;;;19.93;12.77;;;4.30;99.90;;;;;;5076134;28;20256;-83
2023/03/05 02:07:39;;;;;;;14.05;10.85;;;4.30;99.90;;;;;;5091427;28;20612;-84
2023/03/05 02:10:19;;;;;;;20.05;13.20;;;4.40;99.90;;;;;;5091214;28;20381;-84
2023/03/05 02:12:47;;;;;;;15.85;12.18;;;4.40;99.90;;;;;;5075023;28;20245;-84
2023/03/05 02:15:13;;;;;;;20.58;12.65;;;4.40;99.90;;;;;;5075601;28;20208;-83
2023/03/05 02:17:39;;;;;;;19.30;12.73;;;4.40;99.90;;;;;;5089944;28;20201;-83
2023/03/05 02:20:34;;;;;;;21.83;13.50;;;4.40;99.90;;;;;;5090942;28;20189;-83
2023/03/05 02:22:59;;;;;;;16.55;11.88;;;4.40;99.90;;;;;;5073987;28;20237;-84
2023/03/05 02:25:27;;;;;;;22.40;14.73;;;4.40;99.90;;;;;;5090946;28;20192;-83
2023/03/05 02:28:19;;;;;;;20.15;13.00;;;4.40;99.90;;;;;;5075717;28;20202;-84
2023/03/05 02:30:45;;;;;;;20.98;14.18;;;4.40;99.90;;;;;;5075141;28;20181;-84
2023/03/05 02:33:14;;;;;;;19.10;12.70;;;4.40;99.90;;;;;;5075078;28;20692;-84
2023/03/05 02:35:39;;;;;;;27.10;14.20;;;4.40;99.90;;;;;;5074772;28;20737;-84
2023/03/05 02:38:05;;;;;;;21.57;12.53;;;4.30;99.90;;;;;;5075021;28;20228;-84
2023/03/05 02:40:31;;;;;;;18.37;12.13;;;4.40;99.90;;;;;;5075107;28;20165;-82
2023/03/05 02:42:56;;;;;;;22.03;14.13;;;4.40;99.90;;;;;;5075350;28;20470;-83
2023/03/05 02:45:22;;;;;;;23.80;13.50;;;4.30;99.90;;;;;;5090777;28;20199;-84
2023/03/05 02:47:48;;;;;;;26.37;14.50;;;4.30;99.90;;;;;;5090453;28;20685;-84
2023/03/05 02:50:13;;;;;;;20.77;13.20;;;4.30;99.90;;;;;;5074858;28;20634;-83
2023/03/05 02:52:39;;;;;;;22.33;14.13;;;4.30;99.90;;;;;;5074941;28;20197;-84
2023/03/05 02:55:05;;;;;;;18.47;13.17;;;4.30;99.90;;;;;;5090232;28;20276;-83
2023/03/05 02:57:31;;;;;;;22.38;12.90;;;4.30;99.90;;;;;;5074515;28;20250;-84
2023/03/05 02:59:56;;;;;;;24.77;15.13;;;4.20;99.90;;;;;;5074615;28;20219;-83
2023/03/05 03:02:22;;;;;;;21.20;13.23;;;4.20;99.90;;;;;;5090193;28;20213;-84
2023/03/05 03:04:48;;;;;;;23.87;14.80;;;4.20;99.90;;;;;;5074509;28;20182;-83
2023/03/05 03:07:14;;;;;;;16.37;12.27;;;4.20;99.90;;;;;;5074325;28;20234;-84
2023/03/05 03:09:41;;;;;;;22.95;14.25;;;4.20;99.90;;;;;;5074449;28;20181;-83
2023/03/05 03:12:09;;;;;;;24.65;14.95;;;4.20;99.90;;;;;;5074353;28;20193;-84
2023/03/05 03:14:38;;;;;;;22.80;14.25;;;4.20;99.90;;;;;;5074310;28;20260;-84
2023/03/05 03:17:07;;;;;;;21.90;13.05;;;4.20;99.90;;;;;;5074195;28;20657;-83
2023/03/05 03:19:34;;;;;;;25.02;14.07;;;4.20;99.90;;;;;;5074168;28;20180;-83
2023/03/05 03:21:59;;;;;;;24.92;14.23;;;4.10;99.90;;;;;;5074320;28;20584;-84
2023/03/05 03:24:25;;;;;;;24.07;14.60;;;4.10;99.90;;;;;;5074143;28;20188;-83
2023/03/05 03:26:51;;;;;;;22.58;13.63;;;4.10;99.90;;;;;;5089829;28;20188;-83
2023/03/05 03:29:16;;;;;;;22.13;14.70;;;4.10;99.90;;;;;;5089287;28;20551;-82
2023/03/05 03:31:45;;;;;;;22.17;13.83;;;4.10;99.90;;;;;;5073938;28;20709;-84
2023/03/05 03:34:15;;;;;;;21.65;13.50;;;4.10;99.90;;;;;;5073913;28;20169;-83
2023/03/05 03:36:42;;;;;;;23.30;14.23;;;4.00;99.90;;;;;;5089485;28;20188;-84
2023/03/05 03:39:09;;;;;;;25.45;15.23;;;4.00;99.90;;;;;;5073920;28;20248;-84
2023/03/05 03:41:36;;;;;;;24.42;13.75;;;4.00;99.90;;;;;;5089833;28;20703;-83
2023/03/05 03:44:03;;;;;;;19.50;12.90;;;3.90;99.90;;;;;;5090165;28;20213;-84
2023/03/05 03:46:29;;;;;;;24.67;13.35;;;3.90;99.90;;;;;;5089436;28;20183;-84
2023/03/05 03:48:55;;;;;;;23.20;14.18;;;3.90;99.90;;;;;;5089331;28;20284;-84
2023/03/05 03:51:21;;;;;;;24.70;15.30;;;3.90;99.90;;;;;;5089401;28;20611;-84
2023/03/05 03:53:46;;;;;;;22.23;15.20;;;3.90;99.90;;;;;;5073709;28;20284;-83
2023/03/05 03:56:12;;;;;;;20.90;13.50;;;3.90;99.90;;;;;;5089465;28;20311;-85
2023/03/05 03:58:38;;;;;;;20.83;14.37;;;3.90;99.90;;;;;;5089168;28;20197;-84
2023/03/05 04:01:03;;;;;;;22.83;14.80;;;3.80;99.90;;;;;;5089289;28;20184;-83
2023/03/05 04:03:29;;;;;;;21.13;14.37;;;3.80;99.90;;;;;;5089042;28;20228;-84
2023/03/05 04:05:55;;;;;;;22.97;14.20;;;3.80;99.90;;;;;;5089167;28;20225;-84
2023/03/05 04:08:20;;;;;;;22.40;13.90;;;3.80;99.90;;;;;;5089171;28;20284;-84
2023/03/05 04:10:46;;;;;;;22.67;14.63;;;3.80;99.90;;;;;;5089117;28;20173;-83
2023/03/05 04:13:12;;;;;;;25.03;13.23;;;3.80;99.90;;;;;;5088921;28;20294;-83
2023/03/05 04:15:37;;;;;;;25.70;15.20;;;3.80;99.90;;;;;;5073602;28;20205;-84
2023/03/05 04:18:03;;;;;;;23.07;14.30;;;3.80;99.90;;;;;;5074084;28;20219;-84
2023/03/05 04:20:29;;;;;;;22.47;13.13;;;3.80;99.90;;;;;;5073495;28;20264;-84
2023/03/05 04:22:54;;;;;;;20.73;13.70;;;3.70;99.90;;;;;;5088838;28;20315;-84
2023/03/05 04:25:20;;;;;;;23.23;13.80;;;3.70;99.90;;;;;;5073496;28;20212;-83
2023/03/05 04:27:46;;;;;;;22.70;13.40;;;3.70;99.90;;;;;;5073849;28;20250;-84
2023/03/05 04:30:16;;;;;;;28.37;15.30;;;3.60;99.90;;;;;;5089034;28;20177;-83
2023/03/05 04:32:42;;;;;;;21.30;12.73;;;3.60;99.90;;;;;;5089102;28;20211;-84
2023/03/05 04:35:08;;;;;;;21.98;13.60;;;3.60;99.90;;;;;;5073489;28;20180;-83
2023/03/05 04:37:34;;;;;;;21.42;13.85;;;3.50;99.90;;;;;;5088887;28;20571;-84
2023/03/05 04:40:00;;;;;;;29.47;15.33;;;3.50;99.90;;;;;;5089418;28;20184;-84
2023/03/05 04:42:25;;;;;;;21.07;12.70;;;3.40;99.90;;;;;;5077476;28;20615;-84
2023/03/05 04:44:51;;;;;;;23.17;14.30;;;3.40;99.90;;;;;;5092915;28;20216;-84
2023/03/05 04:47:17;;;;;;;24.40;14.60;;;3.40;99.90;;;;;;5077455;28;20669;-83
2023/03/05 04:49:43;;;;;;;20.77;14.77;;;3.40;99.90;;;;;;5077066;28;20642;-83
2023/03/05 04:52:11;;;;;;;24.60;14.57;;;3.30;99.90;;;;;;5092982;28;20209;-84
2023/03/05 04:54:37;;;;;;;21.92;14.15;;;3.30;99.90;;;;;;5093120;28;20192;-84
2023/03/05 04:57:03;;;;;;;22.90;13.87;;;3.30;99.90;;;;;;5092735;28;20205;-84
2023/03/05 04:59:28;;;;;;;24.20;13.93;;;3.30;99.90;;;;;;5092542;28;20228;-82
2023/03/05 05:01:55;;;;;;;21.33;13.90;;;3.30;99.90;;;;;;5092548;28;20523;-84
2023/03/05 05:04:21;;;;;;;23.67;14.23;;;3.20;99.90;;;;;;5076843;28;20877;-84
2023/03/05 05:06:46;;;;;;;29.33;15.37;;;3.30;99.90;;;;;;5076926;28;20227;-83
2023/03/05 05:09:12;;;;;;;21.83;13.37;;;3.30;99.90;;;;;;5076727;28;20380;-83
2023/03/05 05:11:38;;;;;;;23.40;13.63;;;3.30;99.90;;;;;;5076777;28;20638;-84
2023/03/05 05:14:04;;;;;;;22.70;13.63;;;3.30;99.90;;;;;;5076479;28;20221;-84
2023/03/05 05:16:30;;;;;;;21.87;12.57;;;3.30;99.90;;;;;;5076718;28;20230;-83
2023/03/05 05:18:55;;;;;;;22.90;14.07;;;3.30;99.90;;;;;;5092199;28;20209;-84
2023/03/05 05:21:21;;;;;;;26.90;16.00;;;3.30;99.90;;;;;;5076585;28;20177;-84
2023/03/05 05:23:47;;;;;;;21.20;13.50;;;3.40;99.90;;;;;;5076310;28;20193;-84
2023/03/05 05:26:13;;;;;;;22.90;13.60;;;3.50;99.90;;;;;;5076436;28;20408;-84
2023/03/05 05:28:42;;;;;;;22.38;14.13;;;3.50;99.90;;;;;;5091735;28;20200;-83
2023/03/05 05:31:13;;;;;;;24.15;16.13;;;3.50;99.90;;;;;;5091924;28;20587;-84
2023/03/05 05:33:39;;;;;;;21.75;14.43;;;3.50;99.90;;;;;;5091729;28;20193;-83
2023/03/05 05:36:07;;;;;;;27.50;15.07;;;3.50;99.90;;;;;;5091887;28;20194;-83
2023/03/05 05:38:33;;;;;;;23.60;14.18;;;3.50;99.90;;;;;;5076387;28;20600;-83
2023/03/05 05:41:05;;;;;;;28.73;14.90;;;3.50;99.90;;;;;;5091786;28;20185;-83
2023/03/05 05:43:31;;;;;;;28.83;15.23;;;3.50;99.90;;;;;;5091526;28;20244;-84
2023/03/05 05:46:02;;;;;;;21.77;13.90;;;3.40;99.90;;;;;;5091657;28;20177;-84
2023/03/05 05:48:30;;;;;;;23.92;15.10;;;3.40;99.90;;;;;;5091498;28;20209;-83
2023/03/05 05:50:55;;;;;;;22.73;15.80;;;3.40;99.90;;;;;;5075709;28;20177;-83
2023/03/05 05:53:22;;;;;;;24.93;15.83;;;3.40;99.90;;;;;;5091619;28;20201;-83
2023/03/05 05:55:47;;;;;;;23.65;15.10;;;3.40;99.90;;;;;;5091399;28;20177;-84
2023/03/05 05:58:13;;;;;;;22.60;13.03;;;3.40;99.90;;;;;;5075810;28;20280;-84
2023/03/05 06:00:39;;;;;;;26.93;13.90;;;3.40;99.90;;;;;;5091279;28;20174;-83
2023/03/05 06:03:04;;;;;;;27.70;14.90;;;3.50;99.90;;;;;;5075561;28;20217;-84
2023/03/05 06:05:30;;;;;;;22.50;15.57;;;3.40;99.90;;;;;;5075754;28;20211;-84
2023/03/05 06:07:56;;;;;;;21.33;13.40;;;3.50;99.90;;;;;;5076147;28;20662;-83
2023/03/05 06:10:21;;;;;;;24.23;15.80;;;3.50;99.90;;;;;;5075618;28;20179;-83
2023/03/05 06:12:47;;;;;;;23.43;13.93;;;3.60;99.90;;;;;;5091103;28;20555;-83
2023/03/05 06:15:13;;;;;;;24.80;15.00;;;3.70;99.90;;;;;;5075615;28;20689;-84
2023/03/05 06:17:39;;;;;;;22.20;14.90;;;3.70;99.90;;;;;;5091407;28;20666;-84
2023/03/05 06:20:05;;;;;;;23.30;14.77;;;3.80;99.90;;;;;;5091041;28;20185;-82
2023/03/05 06:22:34;;;;;;;21.92;14.55;;;3.80;99.90;;;;;;5090697;28;20227;-84
2023/03/05 06:25:00;;;;;;;21.95;15.02;;;3.80;99.90;;;;;;5090881;28;20593;-84
2023/03/05 06:27:25;;;;;;;26.37;15.33;;;3.90;99.90;;;;;;5075637;28;20201;-84
2023/03/05 06:29:53;;;;;;;23.17;14.73;;;3.90;99.90;;;;;;5075155;28;20174;-82
2023/03/05 06:32:19;;;;;;;26.00;14.75;;;3.90;99.90;;;;;;5075792;28;20204;-83
2023/03/05 06:34:44;;;;;;;25.75;15.93;;;4.00;99.90;;;;;;5075259;28;20178;-83
2023/03/05 06:37:10;;;;;;;22.90;14.40;;;4.10;99.90;;;;;;5090818;28;20201;-84
2023/03/05 06:39:36;;;;;;;23.70;14.10;;;4.10;99.90;;;;;;5074973;28;20178;-82
2023/03/05 06:42:02;;;;;;;23.03;14.90;;;4.20;99.90;;;;;;5075249;28;20218;-84
2023/03/05 06:44:27;;;;;;;25.00;14.82;;;4.20;99.90;;;;;;5075080;28;20641;-83
2023/03/05 06:46:53;;;;;;;24.63;15.47;;;4.30;99.90;;;;;;5090464;28;20223;-84
2023/03/05 06:49:19;;;;;;;24.13;14.30;;;4.40;99.90;;;;;;5090050;28;20177;-83
2023/03/05 06:51:44;;;;;;;24.37;14.30;;;4.40;99.90;;;;;;5090075;28;20713;-84
2023/03/05 06:54:13;;;;;;;20.43;13.90;;;4.50;99.90;;;;;;5090320;28;20182;-82
2023/03/05 06:56:41;;;;;;;20.02;14.18;;;4.60;99.90;;;;;;5090295;28;20177;-84
2023/03/05 06:59:07;;;;;;;22.67;13.90;;;4.70;99.90;;;;;;5074461;28;20179;-84
2023/03/05 07:01:34;;;;;;;24.90;13.18;;;4.80;99.90;;;;;;5074607;28;20197;-84
2023/03/05 07:04:01;;;;;;;18.30;12.57;;;4.90;99.90;;;;;;5073792;28;20201;-83
2023/03/05 07:06:30;;;;;;;19.33;13.48;;;5.00;99.90;;;;;;5090083;28;20185;-84
2023/03/05 07:08:57;;;;;;;24.77;14.40;;;5.10;99.90;;;;;;5089999;28;20237;-84
2023/03/05 07:11:23;;;;;;;21.92;13.55;;;5.20;99.90;;;;;;5089893;28;20179;-83
2023/03/05 07:13:50;;;;;;;26.63;13.43;;;5.20;99.90;;;;;;5074078;28;20233;-84
2023/03/05 07:16:18;;;;;;;19.00;13.40;;;5.40;99.90;;;;;;5089889;28;20192;-84
2023/03/05 07:18:45;;;;;;;18.80;13.80;;;5.40;99.90;;;;;;5074139;28;20196;-84
2023/03/05 07:21:16;;;;;;;18.92;13.65;;;5.50;99.90;;;;;;5090178;28;20185;-83
2023/03/05 07:23:42;;;;;;;21.33;14.75;;;5.60;99.90;;;;;;5089785;28;20205;-84
2023/03/05 07:26:07;;;;;;;26.13;14.73;;;5.60;99.90;;;;;;5089806;28;20183;-84
2023/03/05 07:28:34;;;;;;;20.33;14.33;;;5.80;99.90;;;;;;5089639;28;20491;-84
2023/03/05 07:31:05;;;;;;;22.17;14.25;;;5.80;99.90;;;;;;5074126;28;20264;-84
2023/03/05 07:33:32;;;;;;;23.40;13.80;;;5.90;99.90;;;;;;5089488;28;20337;-84
2023/03/05 07:35:58;;;;;;;20.83;13.98;;;6.00;99.90;;;;;;5089624;28;20310;-84
2023/03/05 07:38:24;;;;;;;20.42;13.18;;;6.00;99.90;;;;;;5074103;28;20204;-84
2023/03/05 07:40:50;;;;;;;17.40;12.90;;;6.10;99.90;;;;;;5089361;28;20298;-84
2023/03/05 07:43:16;;;;;;;18.97;12.23;;;6.20;99.90;;;;;;5073835;28;20278;-84
2023/03/05 07:45:43;;;;;;;19.77;11.98;;;6.30;99.90;;;;;;5073889;28;20391;-84
2023/03/05 07:48:14;;;;;;;18.77;12.57;;;6.40;99.90;;;;;;5089351;28;20299;-84
2023/03/05 07:50:40;;;;;;;19.52;11.80;;;6.50;99.90;;;;;;5089306;28;20214;-83
2023/03/05 07:53:06;;;;;;;20.30;12.00;;;6.60;99.90;;;;;;5089331;28;20205;-84
2023/03/05 07:55:32;;;;;;;17.70;12.70;;;6.80;99.90;;;;;;5089299;28;20541;-84
2023/03/05 07:57:57;;;;;;;17.27;12.60;;;6.90;99.90;;;;;;5089405;28;20437;-83
2023/03/05 08:00:23;;;;;;;17.90;11.50;;;7.10;99.90;;;;;;5073668;28;20260;-83
2023/03/05 08:02:49;;;;;;;15.50;12.20;;;7.30;99.90;;;;;;5089242;28;20224;-84
2023/03/05 08:05:15;;;;;;;18.10;12.65;;;7.50;99.90;;;;;;5073645;28;20184;-83
2023/03/05 08:07:41;;;;;;;17.63;11.55;;;7.70;99.90;;;;;;5074091;28;20189;-84
2023/03/05 08:10:08;;;;;;;18.77;14.07;;;7.80;99.90;;;;;;5089170;28;20185;-83
2023/03/05 08:12:33;;;;;;;20.00;13.48;;;7.80;99.90;;;;;;5089110;28;20677;-84
2023/03/05 08:14:59;;;;;;;39.93;24.70;;;7.80;99.90;;;;;;5076117;28;20188;-84
2023/03/05 08:17:25;;;;;;;19.23;14.63;;;7.80;99.90;;;;;;5093373;28;20204;-84
2023/03/05 08:19:50;;;;;;;19.67;12.47;;;7.80;99.90;;;;;;5077750;28;20173;-83
2023/03/05 08:22:19;;;;;;;18.40;12.30;;;7.90;99.90;;;;;;5077775;28;20497;-84
2023/03/05 08:24:45;;;;;;;16.45;11.65;;;7.90;99.90;;;;;;5077461;28;20173;-84
2023/03/05 08:27:11;;;;;;;15.07;11.43;;;7.90;99.90;;;;;;5093299;28;20690;-84
2023/03/05 08:29:36;;;;;;;17.87;14.10;;;7.90;99.90;;;;;;5077535;28;20199;-83
2023/03/05 08:32:02;;;;;;;20.20;13.47;;;7.90;99.90;;;;;;5077783;28;20193;-84
2023/03/05 08:34:28;;;;;;;21.25;15.00;;;8.00;99.90;;;;;;5093041;28;20185;-84
2023/03/05 08:36:54;;;;;;;18.37;13.10;;;8.10;99.90;;;;;;5077691;28;20180;-84
2023/03/05 08:39:20;;;;;;;21.07;15.03;;;8.10;99.90;;;;;;5092906;28;20181;-84
2023/03/05 08:41:46;;;;;;;20.60;13.73;;;8.10;99.90;;;;;;5092695;28;20874;-84
2023/03/05 08:44:11;;;;;;;19.20;13.63;;;8.20;99.90;;;;;;5077249;28;20196;-84
2023/03/05 08:46:40;;;;;;;20.67;12.70;;;8.30;99.90;;;;;;5092690;28;20181;-84
2023/03/05 08:49:06;;;;;;;17.17;13.15;;;8.40;99.90;;;;;;5092785;28;20521;-83
2023/03/05 08:51:33;;;;;;;16.52;12.23;;;8.50;99.90;;;;;;5092828;28;20181;-84
2023/03/05 08:54:00;;;;;;;21.38;13.70;;;8.70;99.90;;;;;;5092603;28;20204;-84
2023/03/05 08:56:27;;;;;;;14.23;10.13;;;9.00;99.90;;;;;;5077001;28;20200;-84
2023/03/05 08:58:53;;;;;;;17.63;10.95;;;9.30;99.90;;;;;;5076824;28;20216;-84
2023/03/05 09:01:19;;;;;;;15.00;11.32;;;9.60;99.90;;;;;;5092399;28;20542;-84
2023/03/05 09:03:44;;;;;;;13.83;10.80;;;9.80;99.90;;;;;;5092345;28;20295;-84
2023/03/05 09:06:11;;;;;;;17.60;10.97;;;9.80;99.90;;;;;;5092697;28;20268;-84
2023/03/05 09:08:38;;;;;;;16.75;11.52;;;9.70;99.90;;;;;;5092147;28;20254;-83
2023/03/05 09:11:07;;;;;;;15.57;12.50;;;9.60;99.90;;;;;;5092256;28;20177;-84
2023/03/05 09:13:33;;;;;;;16.58;10.80;;;9.50;99.90;;;;;;5092185;28;20710;-84
2023/03/05 09:16:01;;;;;;;16.33;11.85;;;9.40;99.90;;;;;;5076783;28;20260;-84
2023/03/05 09:18:27;;;;;;;16.15;10.10;;;9.40;99.90;;;;;;5076439;28;20189;-84
2023/03/05 09:20:53;;;;;;;14.77;10.13;;;9.30;99.90;;;;;;5076690;28;20176;-84
2023/03/05 09:23:19;;;;;;;16.80;11.80;;;9.20;99.90;;;;;;5091978;28;20713;-84
2023/03/05 09:25:44;;;;;;;16.53;11.53;;;9.10;99.90;;;;;;5075614;28;20180;-84
2023/03/05 09:28:10;;;;;;;16.40;10.77;;;9.10;99.90;;;;;;5076258;28;20421;-84
2023/03/05 09:30:36;;;;;;;16.27;10.63;;;9.10;99.90;;;;;;5091912;28;20173;-83
2023/03/05 09:33:02;;;;;;;17.00;11.43;;;9.10;99.90;;;;;;5076783;28;20440;-84
2023/03/05 09:35:29;;;;;;;17.08;11.65;;;9.00;99.90;;;;;;5076448;28;20228;-84
2023/03/05 09:37:55;;;;;;;18.50;13.05;;;8.90;99.90;;;;;;5077400;28;20205;-86
2023/03/05 09:40:21;;;;;;;17.57;12.00;;;8.90;99.90;;;;;;5092005;28;20657;-84
2023/03/05 09:42:53;;;;;;;18.95;12.77;;;8.90;99.90;;;;;;5076529;28;20883;-84
2023/03/05 09:45:29;;;;;;;18.92;11.82;;;8.90;99.90;;;;;;5076064;28;20169;-84
2023/03/05 09:48:00;;;;;;;16.65;12.60;;;8.80;99.90;;;;;;5076586;28;20235;-84
2023/03/05 09:50:35;;;;;;;22.00;12.48;;;8.90;99.90;;;;;;5075978;28;20626;-84
2023/03/05 09:53:18;;;;;;;15.20;11.20;;;8.80;99.90;;;;;;5091852;28;20207;-84
2023/03/05 09:55:49;;;;;;;17.30;11.45;;;8.80;99.90;;;;;;5091487;28;20184;-84
2023/03/05 09:58:24;;;;;;;18.55;13.98;;;8.80;99.90;;;;;;5091385;28;20246;-85
2023/03/05 10:00:54;;;;;;;15.57;10.27;;;8.80;99.90;;;;;;5075707;28;20183;-84
2023/03/05 10:03:52;;;;;;;14.80;11.20;;;8.80;99.90;;;;;;5091372;28;20597;-84
2023/03/05 10:06:31;;;;;;;15.45;11.10;;;8.90;99.90;;;;;;5075886;28;20173;-84
2023/03/05 10:09:20;;;;;;;19.13;11.73;;;8.80;99.90;;;;;;5091252;28;20209;-83
2023/03/05 10:11:57;;;;;;;16.63;11.85;;;8.80;99.90;;;;;;5091150;28;20207;-84
2023/03/05 10:14:32;;;;;;;17.45;11.63;;;8.80;99.90;;;;;;5075440;28;20362;-84
2023/03/05 10:17:10;;;;;;;18.15;12.25;;;8.70;99.90;;;;;;5091047;28;20200;-84
2023/03/05 10:20:02;;;;;;;17.33;11.70;;;8.70;99.90;;;;;;5075752;28;20169;-83
2023/03/05 10:22:32;;;;;;;14.80;10.50;;;8.60;99.90;;;;;;5091002;28;20238;-83
2023/03/05 10:25:25;;;;;;;21.02;12.07;;;8.50;99.90;;;;;;5075350;28;20181;-84
2023/03/05 10:28:00;;;;;;;17.52;12.63;;;8.50;99.90;;;;;;5075717;28;20237;-84
2023/03/05 10:30:44;;;;;;;17.40;12.85;;;8.50;99.90;;;;;;5075309;28;20173;-84
2023/03/05 10:33:22;;;;;;;21.02;14.52;;;8.50;99.90;;;;;;5091383;28;20209;-84
2023/03/05 10:35:56;;;;;;;20.98;14.07;;;8.50;99.90;;;;;;5075164;28;20598;-84
2023/03/05 10:38:41;;;;;;;18.70;11.95;;;8.50;99.90;;;;;;5074055;28;20568;-84
2023/03/05 10:41:24;;;;;;;20.55;13.63;;;8.50;99.90;;;;;;5090646;28;20181;-84
2023/03/05 10:44:11;;;;;;;19.48;13.38;;;8.40;99.90;;;;;;5090521;28;20216;-85
2023/03/05 10:46:38;;;;;;;34.67;21.25;;;8.40;99.90;;;;;;5074975;28;20179;-84
2023/03/05 10:49:19;;;;;;;50.97;32.80;;;8.30;99.90;;;;;;5074884;28;20173;-84
2023/03/05 10:52:07;;;;;;;20.63;14.38;;;8.30;99.90;;;;;;5090545;28;20209;-84
2023/03/05 10:54:34;;;;;;;24.83;14.30;;;8.30;99.90;;;;;;5074655;28;20653;-84
2023/03/05 10:57:18;;;;;;;21.58;14.25;;;8.30;99.90;;;;;;5090382;28;20285;-84
2023/03/05 11:00:16;;;;;;;25.00;14.07;;;8.30;99.90;;;;;;5074588;28;20172;-84
2023/03/05 11:02:57;;;;;;;25.90;15.60;;;8.30;99.90;;;;;;5072669;28;20225;-85
2023/03/05 11:05:40;;;;;;;21.65;14.40;;;8.30;99.90;;;;;;5090130;28;20657;-84
2023/03/05 11:08:26;;;;;;;16.67;11.93;;;8.40;99.90;;;;;;5090057;28;20215;-83
2023/03/05 11:11:14;;;;;;;20.95;13.68;;;8.40;99.90;;;;;;5074370;28;20180;-84
2023/03/05 11:14:01;;;;;;;21.05;13.77;;;8.40;99.90;;;;;;5090124;28;20596;-85
2023/03/05 11:16:44;;;;;;;18.08;13.45;;;8.40;99.90;;;;;;5090099;28;20192;-84
2023/03/05 11:19:23;;;;;;;18.27;14.10;;;8.50;99.90;;;;;;5089980;28;20642;-83
2023/03/05 11:22:20;;;;;;;28.23;15.07;;;8.50;99.90;;;;;;5074546;28;20585;-84
2023/03/05 11:25:09;;;;;;;20.25;13.25;;;8.50;99.90;;;;;;5089740;28;20668;-83
2023/03/05 11:27:43;;;;;;;19.55;14.85;;;8.50;99.90;;;;;;5069604;28;20229;-85
2023/03/05 11:30:35;;;;;;;17.45;12.70;;;8.60;99.90;;;;;;5090193;28;20635;-83
2023/03/05 11:33:14;;;;;;;14.60;10.55;;;8.60;99.90;;;;;;5074908;28;20288;-84
2023/03/05 11:35:42;;;;;;;20.70;13.52;;;8.70;99.90;;;;;;5089636;28;20201;-84
2023/03/05 11:38:15;;;;;;;21.10;13.35;;;8.70;99.90;;;;;;5073940;28;20193;-84
2023/03/05 11:40:41;;;;;;;22.75;14.38;;;8.90;99.90;;;;;;5089443;28;20185;-83
2023/03/05 11:43:17;;;;;;;22.83;13.80;;;9.00;99.90;;;;;;5089481;28;20718;-84
2023/03/05 11:45:44;;;;;;;20.10;13.32;;;9.00;99.90;;;;;;5089534;28;20233;-84
2023/03/05 11:48:17;;;;;;;22.95;12.73;;;9.10;99.90;;;;;;5073820;28;20250;-84
2023/03/05 11:50:47;;;;;;;20.48;14.48;;;9.20;99.90;;;;;;5073569;28;20242;-84
2023/03/05 11:53:20;;;;;;;20.90;16.58;;;9.20;99.90;;;;;;5089316;28;20196;-84
2023/03/05 11:55:53;;;;;;;21.58;12.73;;;9.20;99.90;;;;;;5089368;28;20634;-84
2023/03/05 11:58:46;;;;;;;18.83;12.05;;;9.30;99.90;;;;;;5073691;28;20295;-83
2023/03/05 12:01:22;;;;;;;18.00;13.00;;;9.40;99.90;;;;;;5069548;28;20646;-84
2023/03/05 12:03:49;;;;;;;14.73;11.20;;;9.50;99.90;;;;;;5089173;28;20220;-84
2023/03/05 12:06:54;;;;;;;19.23;12.45;;;9.60;99.90;;;;;;5089232;28;20259;-84
2023/03/05 12:09:29;;;;;;;19.15;12.57;;;9.60;99.90;;;;;;5073738;28;20614;-84
2023/03/05 12:12:23;;;;;;;17.40;11.85;;;9.80;99.90;;;;;;5073874;28;20176;-84
2023/03/05 12:14:54;;;;;;;14.38;10.05;;;10.00;99.90;;;;;;5072320;28;20658;-84
2023/03/05 12:17:35;;;;;;;14.50;9.00;;;10.20;99.90;;;;;;5089453;28;20279;-84
2023/03/05 12:20:19;;;;;;;12.90;8.65;;;10.40;99.90;;;;;;5089735;28;20192;-83
2023/03/05 12:22:46;;;;;;;24.30;15.60;;;10.60;99.90;;;;;;5089123;28;20213;-84
2023/03/05 12:25:43;;;;;;;11.55;9.30;;;10.70;99.90;;;;;;5089052;28;20231;-84
2023/03/05 12:28:36;;;;;;;12.43;8.52;;;10.90;99.90;;;;;;5088973;28;20201;-85
2023/03/05 12:31:04;;;;;;;13.23;8.75;;;11.00;99.90;;;;;;5069162;28;20185;-83
2023/03/05 12:33:41;;;;;;;15.18;10.20;;;11.00;99.90;;;;;;5073304;28;20200;-84
2023/03/05 12:36:19;;;;;;;12.00;9.23;;;11.10;99.90;;;;;;5073448;28;20169;-84
2023/03/05 12:38:50;;;;;;;9.90;7.32;;;11.10;99.90;;;;;;5073249;28;20221;-84
2023/03/05 12:41:22;;;;;;;9.38;6.20;;;11.20;99.90;;;;;;5088993;28;20177;-84
2023/03/05 12:44:06;;;;;;;11.73;7.40;;;11.10;99.20;;;;;;5073337;28;20235;-84
2023/03/05 12:46:35;;;;;;;10.15;6.78;;;11.10;98.10;;;;;;5073494;28;20177;-84
2023/03/05 12:49:25;;;;;;;11.95;8.35;;;11.10;98.50;;;;;;5088804;28;20650;-84